PDT,Max TemperatureF,Mean TemperatureF,Min TemperatureF,Max Dew PointF,MeanDew PointF,Min DewpointF,Max Humidity, Mean Humidity, Min Humidity, Max Sea Level PressureIn, Mean Sea Level PressureIn, Min Sea Level PressureIn, Max VisibilityMiles, Mean VisibilityMiles, Min VisibilityMiles, Max Wind SpeedMPH, Mean Wind SpeedMPH, Max Gust SpeedMPH,PrecipitationIn, CloudCover, Events, WindDirDegrees
2012-10-1,83,63,42,57,49,43,93,63,33,30.26,30.16,30.07,10,10,10,10,3,17,0.00,0,,253
2012-10-2,70,58,45,57,47,41,83,64,44,30.19,30.15,30.09,10,10,10,12,4,17,0.00,4,,274
2012-10-3,70,55,39,42,31,26,92,57,21,30.27,30.20,30.16,10,10,10,24,10,33,0.00,0,,78
2012-10-4,72,60,48,37,31,24,54,36,17,30.18,30.16,30.14,10,10,10,22,10,26,0.00,0,,89
2012-10-5,72,64,55,29,26,20,35,25,15,30.20,30.17,30.13,10,10,10,28,16,37,0.00,0,,90
2012-10-6,74,65,55,28,25,16,33,22,11,30.17,30.12,30.05,10,10,10,22,16,31,0.00,0,,96
2012-10-7,75,64,53,35,29,26,47,33,18,30.04,29.97,29.89,10,10,10,25,15,31,0.00,0,,90
2012-10-8,72,55,37,43,36,31,76,51,25,30.04,29.97,29.92,10,10,10,7,1,12,0.00,0,,45
2012-10-9,68,54,39,47,43,36,93,69,45,30.13,30.07,29.99,10,8,1,9,2,15,0.00,4,,166
2012-10-10,68,54,40,49,44,38,93,73,52,30.04,29.98,29.91,10,8,2,10,2,13,0.00,1,,250
2012-10-11,67,55,43,47,45,41,100,73,45,29.96,29.92,29.79,10,6,1,7,1,9,0.00,4,,232
2012-10-12,55,49,42,52,49,39,96,90,83,30.08,29.98,29.87,10,5,1,7,1,9,1.10,8,Rain,106
2012-10-13,65,60,55,58,55,52,93,83,73,30.21,30.18,30.10,10,9,1,13,3,17,T,6,Rain,187
2012-10-14,68,60,51,59,55,52,93,78,63,30.16,30.08,29.94,10,8,1,18,5,28,0.48,7,Rain,160
2012-10-15,67,64,61,63,59,56,93,86,78,29.97,29.85,29.67,10,9,2,20,8,26,0.56,8,Rain,221
2012-10-16,65,54,43,60,47,40,87,67,46,30.29,30.06,29.68,10,10,7,20,4,26,0.02,5,Rain,276
2012-10-17,63,52,40,47,43,37,93,72,51,30.32,30.26,30.18,10,10,2,7,1,12,0.00,2,,109
2012-10-18,69,57,44,53,44,40,100,68,36,30.19,30.03,29.88,10,8,0,22,6,28,0.07,2,Fog-Rain,100
2012-10-19,62,58,53,55,52,46,93,83,72,29.94,29.85,29.78,10,8,2,18,4,23,0.53,8,Rain,216
2012-10-20,54,49,44,50,44,39,93,82,71,29.98,29.94,29.87,10,8,2,14,3,23,0.35,8,Rain,204
2012-10-21,55,48,41,45,42,39,96,78,59,29.94,29.87,29.74,10,10,10,13,5,16,0.01,7,Rain,114
2012-10-22,53,46,39,43,41,38,92,79,66,29.72,29.63,29.56,10,9,3,17,8,24,0.56,6,Rain,115
2012-10-23,54,47,40,43,40,38,92,73,54,29.90,29.84,29.73,10,9,1,17,5,24,0.25,8,Rain,156
2012-10-24,55,50,45,44,42,41,86,75,64,30.19,30.01,29.88,10,10,6,15,4,21,0.27,8,Rain,121
2012-10-25,58,50,42,44,42,39,92,74,55,30.42,30.33,30.21,10,10,7,18,4,23,0.01,4,Rain,112
2012-10-26,55,51,47,48,44,39,93,80,66,30.30,30.18,30.13,10,9,3,17,6,23,0.02,7,Rain,98
2012-10-27,62,55,47,57,50,45,96,90,83,30.13,29.99,29.88,10,8,2,18,6,26,0.70,8,Rain,121
2012-10-28,64,61,57,59,56,52,93,89,84,29.97,29.93,29.85,10,8,2,18,4,24,0.96,8,Rain,215
2012-10-29,68,63,57,57,56,53,87,75,63,30.04,29.96,29.83,10,9,6,20,8,29,0.20,7,Rain,217
2012-10-30,60,59,57,57,55,54,93,89,84,29.97,29.88,29.78,10,9,4,15,6,21,0.46,8,Rain,91
2012-10-31,60,57,54,55,53,51,87,84,80,29.77,29.72,29.68,10,9,2,18,6,25,0.48,7,Rain,117